Pagrindinis puslapis
METAR-TAF:

METAR-TAF

Oro uostai :

Peer, Belgija

platuma: 51-10N, ilguma: 005-28E, Aukštis: 55 m

Dabartinis oras

Ataskaita buvo paskelbta 32 minutes, ne 02:55 UTC
Vėjas 1 kt nuo kintamojo kryptimis
Temperatūra 9°C
Drėgmė 71%
Slėgis 1022 hPa
Matomumas 10 km arba daugiau

METAR: EBBL 310255Z AUTO VRB01KT 9999 NCD 09/04 Q1022 BLU

Laikas: 05:27 (03:27 UTC)

Prognozė

Ataskaita buvo paskelbta 11 valandos ir 46 minutes, ne 15:41 UTC
Prognozė galioja nuo 29 metu 19 UTC su 30 metu 07 UTC
Vėjas 7 kt iš Rytų
Matomumas 10 km arba daugiau
Mažai debesys ne aukštis 30000 ft
Tapsmas
nuo 29 metu 20 UTC su 29 metu 22 UTC
Giedras dangus

TAF: EBBL 291541Z 2919/3007 08007KT 9999 FEW300 BECMG 2920/2922 SKC

Orai ataskaitas ir orų prognozės (METAR, TAF).

turimą stotys yra geltonos ir raudonos taškus žemėlapyje.

Perkelti pele per norėdami pamatyti stoties vardą.

Tada spustelėkite, norėdami matyti oro stebėjimo ir prognozės.

Norėdami pakeisti žemėlapį: spustelėkite ant žalios mygtukų su juodo kryžiaus žemyn,; žalią mygtuką su brūkšneliu, jei norite nutolinti; arba žalių rodyklių gretimoms žemėlapius.


METAR-TAF: